Time;durP1;ratioP1;P1;durP2;ratioP2;P2;SDS_P1;SDS_P2;PMS_P1;PMS_P2;Temp;Humidity;BMP_temperature;BMP_pressure;BME280_temperature;BME280_humidity;BME280_pressure;Samples;Min_cycle;Max_cycle;Signal;HPM_P1;HPM_P2
2023/03/19 00:02:31;;;;;;;;;;;;;;;;;;5068079;28;19916;-81
2023/03/19 00:05:17;;;;;;;;;;;;;;;;;;5059896;28;20354;-79
2023/03/19 00:08:04;;;;;;;;;;;;;;;;;;5080720;28;20331;-81
2023/03/19 00:10:50;;;;;;;;;;;;;;;;;;5058282;28;19924;-79
2023/03/19 00:13:37;;;;;;;;;;;;;;;;;;5066120;28;20315;-80
2023/03/19 00:16:23;;;;;;;;;;;;;;;;;;5056953;28;19999;-79
2023/03/19 00:19:10;;;;;;;;;;;;;;;;;;5082027;28;19916;-81
2023/03/19 00:21:57;;;;;;;;;;;;;;;;;;5085326;28;19916;-82
2023/03/19 00:24:43;;;;;;;;;;;;;;;;;;5064630;28;19919;-81
2023/03/19 00:27:30;;;;;;;;;;;;;;;;;;5070913;28;19924;-82
2023/03/19 00:30:17;;;;;;;;;;;;;;;;;;5068740;28;20372;-80
2023/03/19 00:33:03;;;;;;;;;;;;;;;;;;5083277;28;19916;-80
2023/03/19 00:35:50;;;;;;;;;;;;;;;;;;5064269;28;20337;-81
2023/03/19 00:38:37;;;;;;;;;;;;;;;;;;5077651;28;19920;-81
2023/03/19 00:41:24;;;;;;;;;;;;;;;;;;5068020;28;20493;-80
2023/03/19 00:44:10;;;;;;;;;;;;;;;;;;5077126;28;19922;-81
2023/03/19 00:46:56;;;;;;;;;;;;;;;;;;5080404;28;19921;-80
2023/03/19 00:49:43;;;;;;;;;;;;;;;;;;5067024;28;20307;-81
2023/03/19 00:52:29;;;;;;;;;;;;;;;;;;5082920;28;19920;-82
2023/03/19 00:55:16;;;;;;;;;;;;;;;;;;5086089;28;20720;-81
2023/03/19 00:58:02;;;;;;;;;;;;;;;;;;5086389;28;19927;-80
2023/03/19 01:00:49;;;;;;;;;;;;;;;;;;5087346;28;19912;-82
2023/03/19 01:03:35;;;;;;;;;;;;;;;;;;5070068;28;19920;-81
2023/03/19 01:06:22;;;;;;;;;;;;;;;;;;5069905;28;19916;-81
2023/03/19 01:09:08;;;;;;;;;;;;;;;;;;5079830;28;19947;-81
2023/03/19 01:11:55;;;;;;;;;;;;;;;;;;5076368;28;19912;-81
2023/03/19 01:14:41;;;;;;;;;;;;;;;;;;5080960;28;19923;-81
2023/03/19 01:17:28;;;;;;;;;;;;;;;;;;5087410;28;20650;-81
2023/03/19 01:20:17;;;;;;;;;;;;;;;;;;5090291;28;19916;-81
2023/03/19 01:23:04;;;;;;;;;;;;;;;;;;5090670;28;19926;-81
2023/03/19 01:25:51;;;;;;;;;;;;;;;;;;5075672;28;19923;-81
2023/03/19 01:28:37;;;;;;;;;;;;;;;;;;5082777;28;20436;-82
2023/03/19 01:31:24;;;;;;;;;;;;;;;;;;5086400;28;19927;-82
2023/03/19 01:34:10;;;;;;;;;;;;;;;;;;5066168;28;19927;-81
2023/03/19 01:36:57;;;;;;;;;;;;;;;;;;5084703;28;19961;-81
2023/03/19 01:39:44;;;;;;;;;;;;;;;;;;5067773;28;19961;-82
2023/03/19 01:42:30;;;;;;;;;;;;;;;;;;5048130;28;20620;-82
2023/03/19 01:45:17;;;;;;;;;;;;;;;;;;5059505;28;20291;-82
2023/03/19 01:48:03;;;;;;;;;;;;;;;;;;5065299;28;19924;-82
2023/03/19 01:50:52;;;;;;;;;;;;;;;;;;5094188;28;19920;-81
2023/03/19 01:53:39;;;;;;;;;;;;;;;;;;5080741;28;19927;-81
2023/03/19 01:56:25;;;;;;;;;;;;;;;;;;5085491;28;19927;-82
2023/03/19 01:59:12;;;;;;;;;;;;;;;;;;5084250;28;19916;-81
2023/03/19 02:01:58;;;;;;;;;;;;;;;;;;5070247;28;19927;-81
2023/03/19 02:04:45;;;;;;;;;;;;;;;;;;5072116;28;19922;-81
2023/03/19 02:07:32;;;;;;;;;;;;;;;;;;5070651;28;19936;-81
2023/03/19 02:10:18;;;;;;;;;;;;;;;;;;5082351;28;19923;-81
2023/03/19 02:13:05;;;;;;;;;;;;;;;;;;5085469;28;19927;-81
2023/03/19 02:15:51;;;;;;;;;;;;;;;;;;5085809;28;19916;-81
2023/03/19 02:18:38;;;;;;;;;;;;;;;;;;5081576;28;19931;-81
2023/03/19 02:21:25;;;;;;;;;;;;;;;;;;5057261;28;20383;-81
2023/03/19 02:24:11;;;;;;;;;;;;;;;;;;5083643;28;19916;-80
2023/03/19 02:26:58;;;;;;;;;;;;;;;;;;5085961;28;19926;-80
2023/03/19 02:29:44;;;;;;;;;;;;;;;;;;5070058;28;19924;-80
2023/03/19 02:32:32;;;;;;;;;;;;;;;;;;5063414;28;20497;-81
2023/03/19 02:35:19;;;;;;;;;;;;;;;;;;5081745;28;19924;-81
2023/03/19 02:38:06;;;;;;;;;;;;;;;;;;5055407;28;19966;-81
2023/03/19 02:40:52;;;;;;;;;;;;;;;;;;5055323;28;19917;-81
2023/03/19 02:43:39;;;;;;;;;;;;;;;;;;5054910;28;19920;-80
2023/03/19 02:46:25;;;;;;;;;;;;;;;;;;5071025;28;19931;-81
2023/03/19 02:49:12;;;;;;;;;;;;;;;;;;5073751;28;19924;-81
2023/03/19 02:51:58;;;;;;;;;;;;;;;;;;5083228;28;19924;-80
2023/03/19 02:54:45;;;;;;;;;;;;;;;;;;5085225;28;19923;-80
2023/03/19 02:57:32;;;;;;;;;;;;;;;;;;5085031;28;20282;-81
2023/03/19 03:00:19;;;;;;;;;;;;;;;;;;5084728;28;20621;-81
2023/03/19 03:03:06;;;;;;;;;;;;;;;;;;5069543;28;19930;-80
2023/03/19 03:05:53;;;;;;;;;;;;;;;;;;5084586;28;19923;-81
2023/03/19 03:08:40;;;;;;;;;;;;;;;;;;5074532;28;19935;-81
2023/03/19 03:11:26;;;;;;;;;;;;;;;;;;5068830;28;19920;-81
2023/03/19 03:14:13;;;;;;;;;;;;;;;;;;5049279;28;19917;-81
2023/03/19 03:16:59;;;;;;;;;;;;;;;;;;5068655;28;19935;-80
2023/03/19 03:19:46;;;;;;;;;;;;;;;;;;5084101;28;19920;-81
2023/03/19 03:22:33;;;;;;;;;;;;;;;;;;5059603;28;19924;-80
2023/03/19 03:25:20;;;;;;;;;;;;;;;;;;5076125;28;20496;-81
2023/03/19 03:28:06;;;;;;;;;;;;;;;;;;5084772;28;20382;-80
2023/03/19 03:30:53;;;;;;;;;;;;;;;;;;5084401;28;20380;-80
2023/03/19 03:33:39;;;;;;;;;;;;;;;;;;5074973;28;19916;-80
2023/03/19 03:36:26;;;;;;;;;;;;;;;;;;5083681;28;19926;-81
2023/03/19 03:39:13;;;;;;;;;;;;;;;;;;5076465;28;19923;-80
2023/03/19 03:41:59;;;;;;;;;;;;;;;;;;5068110;28;19916;-80
2023/03/19 03:44:46;;;;;;;;;;;;;;;;;;5083062;28;20311;-81
2023/03/19 03:47:32;;;;;;;;;;;;;;;;;;5060623;28;19947;-81
2023/03/19 03:50:19;;;;;;;;;;;;;;;;;;5084678;28;19924;-81
2023/03/19 03:53:06;;;;;;;;;;;;;;;;;;5082831;28;19922;-81
2023/03/19 03:55:52;;;;;;;;;;;;;;;;;;5069666;28;19923;-81
2023/03/19 03:58:39;;;;;;;;;;;;;;;;;;5073566;28;19938;-80
2023/03/19 04:01:26;;;;;;;;;;;;;;;;;;5073174;28;19921;-79
2023/03/19 04:04:12;;;;;;;;;;;;;;;;;;5056575;28;20308;-79
2023/03/19 04:06:59;;;;;;;;;;;;;;;;;;5071847;28;19920;-78
2023/03/19 04:09:46;;;;;;;;;;;;;;;;;;5069038;28;19924;-79
2023/03/19 04:12:33;;;;;;;;;;;;;;;;;;5078516;28;19986;-80
2023/03/19 04:15:20;;;;;;;;;;;;;;;;;;5074193;28;19912;-79
2023/03/19 04:18:06;;;;;;;;;;;;;;;;;;5080347;28;19944;-80
2023/03/19 04:20:53;;;;;;;;;;;;;;;;;;5084551;28;19939;-80
2023/03/19 04:23:39;;;;;;;;;;;;;;;;;;5074151;28;19923;-80
2023/03/19 04:26:26;;;;;;;;;;;;;;;;;;5081897;28;19916;-81
2023/03/19 04:29:12;;;;;;;;;;;;;;;;;;5084692;28;20264;-80
2023/03/19 04:31:59;;;;;;;;;;;;;;;;;;5086749;28;20295;-79
2023/03/19 04:34:47;;;;;;;;;;;;;;;;;;5089173;28;19938;-79
2023/03/19 04:37:33;;;;;;;;;;;;;;;;;;5097651;28;19920;-79
2023/03/19 04:40:20;;;;;;;;;;;;;;;;;;5078350;28;20279;-80
2023/03/19 04:43:06;;;;;;;;;;;;;;;;;;5085427;28;19949;-79
2023/03/19 04:45:53;;;;;;;;;;;;;;;;;;5088279;28;19916;-80
2023/03/19 04:48:39;;;;;;;;;;;;;;;;;;5071358;28;19931;-79
2023/03/19 04:51:26;;;;;;;;;;;;;;;;;;5071610;28;19920;-80
2023/03/19 04:54:13;;;;;;;;;;;;;;;;;;5085611;28;19913;-80
2023/03/19 04:56:59;;;;;;;;;;;;;;;;;;5083844;28;20633;-80
2023/03/19 04:59:46;;;;;;;;;;;;;;;;;;5088156;28;19916;-80
2023/03/19 05:02:32;;;;;;;;;;;;;;;;;;5062002;28;19912;-80
2023/03/19 05:05:19;;;;;;;;;;;;;;;;;;5089218;28;19916;-80
2023/03/19 05:08:06;;;;;;;;;;;;;;;;;;5066595;28;19932;-81
2023/03/19 05:10:52;;;;;;;;;;;;;;;;;;5066736;28;19928;-81
2023/03/19 05:13:39;;;;;;;;;;;;;;;;;;5070022;28;19928;-81
2023/03/19 05:16:26;;;;;;;;;;;;;;;;;;5064302;28;20364;-81
2023/03/19 05:19:13;;;;;;;;;;;;;;;;;;5062496;28;19923;-80
2023/03/19 05:21:59;;;;;;;;;;;;;;;;;;5065501;28;19928;-80
2023/03/19 05:24:46;;;;;;;;;;;;;;;;;;5064435;28;19916;-80
2023/03/19 05:27:32;;;;;;;;;;;;;;;;;;5064522;28;20394;-80
2023/03/19 05:30:19;;;;;;;;;;;;;;;;;;5051551;28;19917;-80
2023/03/19 05:33:05;;;;;;;;;;;;;;;;;;5049537;28;19928;-80
2023/03/19 05:35:52;;;;;;;;;;;;;;;;;;5047251;28;20479;-80
2023/03/19 05:38:38;;;;;;;;;;;;;;;;;;5047987;28;19921;-81
2023/03/19 05:41:25;;;;;;;;;;;;;;;;;;5065777;28;19920;-81
2023/03/19 05:44:11;;;;;;;;;;;;;;;;;;5065758;28;20330;-80
2023/03/19 05:46:58;;;;;;;;;;;;;;;;;;5058052;28;20524;-80
2023/03/19 05:49:44;;;;;;;;;;;;;;;;;;5067158;28;19925;-81
2023/03/19 05:52:31;;;;;;;;;;;;;;;;;;5064724;28;19920;-81
2023/03/19 05:55:17;;;;;;;;;;;;;;;;;;5060333;28;19913;-81
2023/03/19 05:58:04;;;;;;;;;;;;;;;;;;5064993;28;19920;-80
2023/03/19 06:00:51;;;;;;;;;;;;;;;;;;5065146;28;19917;-81
2023/03/19 06:03:37;;;;;;;;;;;;;;;;;;5065019;28;19923;-80
2023/03/19 06:06:24;;;;;;;;;;;;;;;;;;5057818;28;19933;-80
2023/03/19 06:09:10;;;;;;;;;;;;;;;;;;5062981;28;20689;-80
2023/03/19 06:11:57;;;;;;;;;;;;;;;;;;5065232;28;19912;-79
2023/03/19 06:14:43;;;;;;;;;;;;;;;;;;5044572;28;20394;-80
2023/03/19 06:17:30;;;;;;;;;;;;;;;;;;5065525;28;19943;-80
2023/03/19 06:20:16;;;;;;;;;;;;;;;;;;5060583;28;19920;-79
2023/03/19 06:23:03;;;;;;;;;;;;;;;;;;5046105;28;19923;-78
2023/03/19 06:25:49;;;;;;;;;;;;;;;;;;5046251;28;19927;-79
2023/03/19 06:28:36;;;;;;;;;;;;;;;;;;5055945;28;19924;-80
2023/03/19 06:31:22;;;;;;;;;;;;;;;;;;5049856;28;19926;-80
2023/03/19 06:34:09;;;;;;;;;;;;;;;;;;5064966;28;19920;-79
2023/03/19 06:36:55;;;;;;;;;;;;;;;;;;5066451;28;19942;-79
2023/03/19 06:39:42;;;;;;;;;;;;;;;;;;5048828;28;19917;-79
2023/03/19 06:42:28;;;;;;;;;;;;;;;;;;5064344;28;20650;-79
2023/03/19 06:45:17;;;;;;;;;;;;;;;;;;5062329;28;19920;-79
2023/03/19 06:48:04;;;;;;;;;;;;;;;;;;5064475;28;19925;-80
2023/03/19 06:50:51;;;;;;;;;;;;;;;;;;5064518;28;19928;-80
2023/03/19 06:53:37;;;;;;;;;;;;;;;;;;5054653;28;19923;-80
2023/03/19 06:56:24;;;;;;;;;;;;;;;;;;5042003;28;19924;-80
2023/03/19 06:59:11;;;;;;;;;;;;;;;;;;5063532;28;19917;-80
2023/03/19 07:01:58;;;;;;;;;;;;;;;;;;5049280;28;19916;-80
2023/03/19 07:04:44;;;;;;;;;;;;;;;;;;5058429;28;19916;-80
2023/03/19 07:07:31;;;;;;;;;;;;;;;;;;5064454;28;19935;-80
2023/03/19 07:10:17;;;;;;;;;;;;;;;;;;5047552;28;19944;-80
2023/03/19 07:13:04;;;;;;;;;;;;;;;;;;5064043;28;19925;-80
2023/03/19 07:15:50;;;;;;;;;;;;;;;;;;5063627;28;19923;-81
2023/03/19 07:18:37;;;;;;;;;;;;;;;;;;5062673;28;19921;-80
2023/03/19 07:21:23;;;;;;;;;;;;;;;;;;5065155;28;19924;-81
2023/03/19 07:24:10;;;;;;;;;;;;;;;;;;5056540;28;20367;-79
2023/03/19 07:26:57;;;;;;;;;;;;;;;;;;5054263;28;19940;-78
2023/03/19 07:29:43;;;;;;;;;;;;;;;;;;5063547;28;19931;-80
2023/03/19 07:32:31;;;;;;;;;;;;;;;;;;5062559;28;19913;-80
2023/03/19 07:35:17;;;;;;;;;;;;;;;;;;5063395;28;19912;-81
2023/03/19 07:38:04;;;;;;;;;;;;;;;;;;5063313;28;20519;-79
2023/03/19 07:40:50;;;;;;;;;;;;;;;;;;5065418;28;19942;-80
2023/03/19 07:43:37;;;;;;;;;;;;;;;;;;5048214;28;19927;-80
2023/03/19 07:46:23;;;;;;;;;;;;;;;;;;5046894;28;19930;-80
2023/03/19 07:49:10;;;;;;;;;;;;;;;;;;5046175;28;20620;-79
2023/03/19 07:51:56;;;;;;;;;;;;;;;;;;5054950;28;19921;-78
2023/03/19 07:54:43;;;;;;;;;;;;;;;;;;5067395;28;19935;-79
2023/03/19 07:57:31;;;;;;;;;;;;;;;;;;5058429;28;19925;-79
2023/03/19 08:00:18;;;;;;;;;;;;;;;;;;5062474;28;19913;-77
2023/03/19 08:03:04;;;;;;;;;;;;;;;;;;5056263;28;19916;-78
2023/03/19 08:05:51;;;;;;;;;;;;;;;;;;5060558;28;19927;-81
2023/03/19 08:08:38;;;;;;;;;;;;;;;;;;5056112;28;20292;-81
2023/03/19 08:11:24;;;;;;;;;;;;;;;;;;5062314;28;20361;-84
2023/03/19 08:14:11;;;;;;;;;;;;;;;;;;5040942;28;20288;-82
2023/03/19 08:16:57;;;;;;;;;;;;;;;;;;5054818;28;19916;-81
2023/03/19 08:19:44;;;;;;;;;;;;;;;;;;5060636;28;19924;-82
2023/03/19 08:22:30;;;;;;;;;;;;;;;;;;5060822;28;19920;-82
2023/03/19 08:25:17;;;;;;;;;;;;;;;;;;5040695;28;19925;-81
2023/03/19 08:28:04;;;;;;;;;;;;;;;;;;5045641;28;19931;-81
2023/03/19 08:30:50;;;;;;;;;;;;;;;;;;5059617;28;19916;-81
2023/03/19 08:33:37;;;;;;;;;;;;;;;;;;5058084;28;20474;-81
2023/03/19 08:36:23;;;;;;;;;;;;;;;;;;5058323;28;19920;-82
2023/03/19 08:39:10;;;;;;;;;;;;;;;;;;5058668;28;19921;-82
2023/03/19 08:41:56;;;;;;;;;;;;;;;;;;5042307;28;19928;-82
2023/03/19 08:44:43;;;;;;;;;;;;;;;;;;5056959;28;19927;-82
2023/03/19 08:47:30;;;;;;;;;;;;;;;;;;5053471;28;19947;-82
2023/03/19 08:50:16;;;;;;;;;;;;;;;;;;5060610;28;19924;-81
2023/03/19 08:53:03;;;;;;;;;;;;;;;;;;5057218;28;19920;-82
2023/03/19 08:55:49;;;;;;;;;;;;;;;;;;5058484;28;19917;-83
2023/03/19 08:58:36;;;;;;;;;;;;;;;;;;5059192;28;19920;-82
2023/03/19 09:01:23;;;;;;;;;;;;;;;;;;5043302;28;19931;-81
2023/03/19 09:04:09;;;;;;;;;;;;;;;;;;5052158;28;20628;-81
2023/03/19 09:06:56;;;;;;;;;;;;;;;;;;5072869;28;20481;-81
2023/03/19 09:09:42;;;;;;;;;;;;;;;;;;5069617;28;19934;-81
2023/03/19 09:12:29;;;;;;;;;;;;;;;;;;5062638;28;19916;-81
2023/03/19 09:15:15;;;;;;;;;;;;;;;;;;5047033;28;19922;-82
2023/03/19 09:18:02;;;;;;;;;;;;;;;;;;5068642;28;19966;-81
2023/03/19 09:20:48;;;;;;;;;;;;;;;;;;5074751;28;19923;-81
2023/03/19 09:23:35;;;;;;;;;;;;;;;;;;5066838;28;19916;-82
2023/03/19 09:26:22;;;;;;;;;;;;;;;;;;5082237;28;19920;-83
2023/03/19 09:29:08;;;;;;;;;;;;;;;;;;5063907;28;20199;-81
2023/03/19 09:31:55;;;;;;;;;;;;;;;;;;5061680;28;20857;-82
2023/03/19 09:34:41;;;;;;;;;;;;;;;;;;5069771;28;20681;-81
2023/03/19 09:37:28;;;;;;;;;;;;;;;;;;5081516;28;19924;-82
2023/03/19 09:40:14;;;;;;;;;;;;;;;;;;5064755;28;19925;-81
2023/03/19 09:43:01;;;;;;;;;;;;;;;;;;5080040;28;19923;-81
2023/03/19 09:45:48;;;;;;;;;;;;;;;;;;5078104;28;19920;-82
2023/03/19 09:48:34;;;;;;;;;;;;;;;;;;5076560;28;19928;-81
2023/03/19 09:51:21;;;;;;;;;;;;;;;;;;5075622;28;19920;-83
2023/03/19 09:54:07;;;;;;;;;;;;;;;;;;5061731;28;19920;-82
2023/03/19 09:56:54;;;;;;;;;;;;;;;;;;5073609;28;19920;-82
2023/03/19 09:59:40;;;;;;;;;;;;;;;;;;5081247;28;19934;-82
2023/03/19 10:02:27;;;;;;;;;;;;;;;;;;5065259;28;20454;-83
2023/03/19 10:05:13;;;;;;;;;;;;;;;;;;5081142;28;19958;-83
2023/03/19 10:08:00;;;;;;;;;;;;;;;;;;5078614;28;20661;-81
2023/03/19 10:10:47;;;;;;;;;;;;;;;;;;5066884;28;19921;-82
2023/03/19 10:13:33;;;;;;;;;;;;;;;;;;5075639;28;19920;-83
2023/03/19 10:16:20;;;;;;;;;;;;;;;;;;5079819;28;19920;-83
2023/03/19 10:19:06;;;;;;;;;;;;;;;;;;5061199;28;19931;-82
2023/03/19 10:21:55;;;;;;;;;;;;;;;;;;5082389;28;19931;-83
2023/03/19 10:24:42;;;;;;;;;;;;;;;;;;5070863;28;19920;-82
2023/03/19 10:27:28;;;;;;;;;;;;;;;;;;5067689;28;19924;-83
2023/03/19 10:30:15;;;;;;;;;;;;;;;;;;5081257;28;19924;-89
2023/03/19 10:33:01;;;;;;;;;;;;;;;;;;5072981;28;19926;-87
2023/03/19 10:35:48;;;;;;;;;;;;;;;;;;5080349;28;19931;-86
2023/03/19 10:38:34;;;;;;;;;;;;;;;;;;5066044;28;20265;-87
2023/03/19 10:41:21;;;;;;;;;;;;;;;;;;5068387;28;19920;-88
2023/03/19 10:44:07;;;;;;;;;;;;;;;;;;5081269;28;19927;-88
2023/03/19 10:46:54;;;;;;;;;;;;;;;;;;5069554;28;19926;-88
2023/03/19 10:49:41;;;;;;;;;;;;;;;;;;5068302;28;19931;-88
2023/03/19 10:52:27;;;;;;;;;;;;;;;;;;5087218;28;20383;-87
2023/03/19 10:55:14;;;;;;;;;;;;;;;;;;5067708;28;19917;-89
2023/03/19 10:58:01;;;;;;;;;;;;;;;;;;5082828;28;19926;-85
2023/03/19 11:00:48;;;;;;;;;;;;;;;;;;5082388;28;19931;-82
2023/03/19 11:03:34;;;;;;;;;;;;;;;;;;5063349;28;19924;-82
2023/03/19 11:06:21;;;;;;;;;;;;;;;;;;5080989;28;19916;-79
2023/03/19 11:09:07;;;;;;;;;;;;;;;;;;5080637;28;20544;-79
2023/03/19 11:11:54;;;;;;;;;;;;;;;;;;5080781;28;19924;-80
2023/03/19 11:14:43;;;;;;;;;;;;;;;;;;5060402;28;19920;-78
2023/03/19 11:17:30;;;;;;;;;;;;;;;;;;5074054;28;19924;-78
2023/03/19 11:20:19;;;;;;;;;;;;;;;;;;5069108;28;19924;-79
2023/03/19 11:23:06;;;;;;;;;;;;;;;;;;5073620;28;19920;-78
2023/03/19 11:25:53;;;;;;;;;;;;;;;;;;5081067;28;19924;-78
2023/03/19 11:28:40;;;;;;;;;;;;;;;;;;5079659;28;19925;-79
2023/03/19 11:31:27;;;;;;;;;;;;;;;;;;5049675;28;19921;-79
2023/03/19 11:34:14;;;;;;;;;;;;;;;;;;5054590;28;20500;-79
2023/03/19 11:37:00;;;;;;;;;;;;;;;;;;5070100;28;19933;-77
2023/03/19 11:39:47;;;;;;;;;;;;;;;;;;5068896;28;19916;-77
2023/03/19 11:42:33;;;;;;;;;;;;;;;;;;5063471;28;19916;-77
2023/03/19 11:45:20;;;;;;;;;;;;;;;;;;5079134;28;19927;-77
2023/03/19 11:48:06;;;;;;;;;;;;;;;;;;5076222;28;20615;-79
2023/03/19 11:50:53;;;;;;;;;;;;;;;;;;5076185;28;19924;-76
2023/03/19 11:53:39;;;;;;;;;;;;;;;;;;5078271;28;19916;-78
2023/03/19 11:56:26;;;;;;;;;;;;;;;;;;5069702;28;19920;-78
2023/03/19 11:59:12;;;;;;;;;;;;;;;;;;5051980;28;20556;-77
2023/03/19 12:01:59;;;;;;;;;;;;;;;;;;5078914;28;20463;-77
2023/03/19 12:04:46;;;;;;;;;;;;;;;;;;5063055;28;19922;-78
2023/03/19 12:07:32;;;;;;;;;;;;;;;;;;5078909;28;19928;-77
2023/03/19 12:10:19;;;;;;;;;;;;;;;;;;5063492;28;19924;-79
2023/03/19 12:13:06;;;;;;;;;;;;;;;;;;5066260;28;19923;-78
2023/03/19 12:15:52;;;;;;;;;;;;;;;;;;5066506;28;19917;-77
2023/03/19 12:18:39;;;;;;;;;;;;;;;;;;5064021;28;19927;-78
2023/03/19 12:21:26;;;;;;;;;;;;;;;;;;5075262;28;19924;-78
2023/03/19 12:24:12;;;;;;;;;;;;;;;;;;5077263;28;20382;-78
2023/03/19 12:26:59;;;;;;;;;;;;;;;;;;5064955;28;19938;-77
2023/03/19 12:29:45;;;;;;;;;;;;;;;;;;5073899;28;20657;-78
2023/03/19 12:32:32;;;;;;;;;;;;;;;;;;5082720;28;19920;-78
2023/03/19 12:35:19;;;;;;;;;;;;;;;;;;5077440;28;19916;-78
2023/03/19 12:38:06;;;;;;;;;;;;;;;;;;5077111;28;20350;-76
2023/03/19 12:40:52;;;;;;;;;;;;;;;;;;5060615;28;19920;-79
2023/03/19 12:43:39;;;;;;;;;;;;;;;;;;5060511;28;19920;-79
2023/03/19 12:46:26;;;;;;;;;;;;;;;;;;5076978;28;19927;-79
2023/03/19 12:49:12;;;;;;;;;;;;;;;;;;5068300;28;20368;-79
2023/03/19 12:52:00;;;;;;;;;;;;;;;;;;5068944;28;19931;-77
2023/03/19 12:54:47;;;;;;;;;;;;;;;;;;5063855;28;19916;-78
2023/03/19 12:57:34;;;;;;;;;;;;;;;;;;5066756;28;19927;-78
2023/03/19 13:00:23;;;;;;;;;;;;;;;;;;5079779;28;19927;-78
2023/03/19 13:03:10;;;;;;;;;;;;;;;;;;5079515;28;19924;-77
2023/03/19 13:05:56;;;;;;;;;;;;;;;;;;5071477;28;19920;-78
2023/03/19 13:08:43;;;;;;;;;;;;;;;;;;5073753;28;19951;-79
2023/03/19 13:11:29;;;;;;;;;;;;;;;;;;5081205;28;20016;-77
2023/03/19 13:14:16;;;;;;;;;;;;;;;;;;5079946;28;19927;-77
2023/03/19 13:17:02;;;;;;;;;;;;;;;;;;5070766;28;19920;-77
2023/03/19 13:19:51;;;;;;;;;;;;;;;;;;5071161;28;19916;-79
2023/03/19 13:22:40;;;;;;;;;;;;;;;;;;5061647;28;20413;-79
2023/03/19 13:25:26;;;;;;;;;;;;;;;;;;5074096;28;19923;-79
2023/03/19 13:28:13;;;;;;;;;;;;;;;;;;5065786;28;19916;-79
2023/03/19 13:31:00;;;;;;;;;;;;;;;;;;5068091;28;19928;-80
2023/03/19 13:33:46;;;;;;;;;;;;;;;;;;5057629;28;19939;-79
2023/03/19 13:36:33;;;;;;;;;;;;;;;;;;5079299;28;19931;-79
2023/03/19 13:39:22;;;;;;;;;;;;;;;;;;5065508;28;19916;-80
2023/03/19 13:42:08;;;;;;;;;;;;;;;;;;5071685;28;19973;-79
2023/03/19 13:44:55;;;;;;;;;;;;;;;;;;5071052;28;19916;-80
2023/03/19 13:47:42;;;;;;;;;;;;;;;;;;5064102;28;19911;-79
2023/03/19 13:50:29;;;;;;;;;;;;;;;;;;5083928;27;20354;-79
2023/03/19 13:53:16;;;;;;;;;;;;;;;;;;5094365;28;19920;-80
2023/03/19 13:56:03;;;;;;;;;;;;;;;;;;5067588;28;19916;-79
2023/03/19 13:58:51;;;;;;;;;;;;;;;;;;5065600;28;19935;-80
2023/03/19 14:01:40;;;;;;;;;;;;;;;;;;5044720;28;19931;-80
2023/03/19 14:04:28;;;;;;;;;;;;;;;;;;5056749;28;19916;-81
2023/03/19 14:07:14;;;;;;;;;;;;;;;;;;5065392;28;19942;-80
2023/03/19 14:10:01;;;;;;;;;;;;;;;;;;5066899;28;19928;-80
2023/03/19 14:12:47;;;;;;;;;;;;;;;;;;5081250;28;20367;-79
2023/03/19 14:15:36;;;;;;;;;;;;;;;;;;5052750;28;20368;-79
2023/03/19 14:18:23;;;;;;;;;;;;;;;;;;5055503;28;19922;-78
2023/03/19 14:21:10;;;;;;;;;;;;;;;;;;5080920;28;19920;-78
2023/03/19 14:23:59;;;;;;;;;;;;;;;;;;5059876;28;19916;-80
2023/03/19 14:26:45;;;;;;;;;;;;;;;;;;5082665;28;19923;-78
2023/03/19 14:29:32;;;;;;;;;;;;;;;;;;5078655;28;19928;-78
2023/03/19 14:32:18;;;;;;;;;;;;;;;;;;5076740;28;19955;-80
2023/03/19 14:35:05;;;;;;;;;;;;;;;;;;5077473;28;19927;-80
2023/03/19 14:37:53;;;;;;;;;;;;;;;;;;5071447;28;19923;-82
2023/03/19 14:40:39;;;;;;;;;;;;;;;;;;5063980;28;19916;-81
2023/03/19 14:43:27;;;;;;;;;;;;;;;;;;5062493;28;19990;-81
2023/03/19 14:46:13;;;;;;;;;;;;;;;;;;5074616;28;20454;-81
2023/03/19 14:49:00;;;;;;;;;;;;;;;;;;5070328;28;20485;-81
2023/03/19 14:51:46;;;;;;;;;;;;;;;;;;5079988;28;19932;-81
2023/03/19 14:54:33;;;;;;;;;;;;;;;;;;5064121;28;19916;-81
2023/03/19 14:57:20;;;;;;;;;;;;;;;;;;5054521;28;20427;-81
2023/03/19 15:00:08;;;;;;;;;;;;;;;;;;5083780;28;19920;-81
2023/03/19 15:02:55;;;;;;;;;;;;;;;;;;5071306;28;20466;-81
2023/03/19 15:05:42;;;;;;;;;;;;;;;;;;5052511;28;19931;-79
2023/03/19 15:08:28;;;;;;;;;;;;;;;;;;5063374;28;19939;-80
2023/03/19 15:11:15;;;;;;;;;;;;;;;;;;5070129;28;19936;-82
2023/03/19 15:14:02;;;;;;;;;;;;;;;;;;5056616;28;20454;-82
2023/03/19 15:16:49;;;;;;;;;;;;;;;;;;5055667;28;19986;-80
2023/03/19 15:19:36;;;;;;;;;;;;;;;;;;5065633;28;19927;-80
2023/03/19 15:22:23;;;;;;;;;;;;;;;;;;5075976;28;20383;-81
2023/03/19 15:25:11;;;;;;;;;;;;;;;;;;5052293;28;20383;-79
2023/03/19 15:28:05;;;;;;;;;;;;;;;;;;5052656;28;20025;-80
2023/03/19 15:30:52;;;;;;;;;;;;;;;;;;5072989;28;19928;-82
2023/03/19 15:33:39;;;;;;;;;;;;;;;;;;5076422;28;19915;-81
2023/03/19 15:36:28;;;;;;;;;;;;;;;;;;5039413;28;20014;-81
2023/03/19 15:39:18;;;;;;;;;;;;;;;;;;5035435;28;19917;-81
2023/03/19 15:42:04;;;;;;;;;;;;;;;;;;5054148;28;19939;-79
2023/03/19 15:44:51;;;;;;;;;;;;;;;;;;5003379;28;20019;-79
2023/03/19 15:47:37;;;;;;;;;;;;;;;;;;5062940;28;19928;-79
2023/03/19 15:50:24;;;;;;;;;;;;;;;;;;5056305;28;20454;-79
2023/03/19 15:53:13;;;;;;;;;;;;;;;;;;5061237;28;19920;-79
2023/03/19 15:55:59;;;;;;;;;;;;;;;;;;5076881;28;19920;-80
2023/03/19 15:58:46;;;;;;;;;;;;;;;;;;5038833;28;19916;-79
2023/03/19 16:01:33;;;;;;;;;;;;;;;;;;5060284;28;19925;-80
2023/03/19 16:04:19;;;;;;;;;;;;;;;;;;5065985;28;19922;-79
2023/03/19 16:07:06;;;;;;;;;;;;;;;;;;5074715;28;19970;-81
2023/03/19 16:09:53;;;;;;;;;;;;;;;;;;5077901;28;20298;-79
2023/03/19 16:12:39;;;;;;;;;;;;;;;;;;5061841;28;19920;-78
2023/03/19 16:15:29;;;;;;;;;;;;;;;;;;5039356;28;19920;-79
2023/03/19 16:18:19;;;;;;;;;;;;;;;;;;5051270;28;19994;-79
2023/03/19 16:21:05;;;;;;;;;;;;;;;;;;5058497;28;19927;-80
2023/03/19 16:23:52;;;;;;;;;;;;;;;;;;5075780;28;19921;-79
2023/03/19 16:26:39;;;;;;;;;;;;;;;;;;5057177;28;19920;-79
2023/03/19 16:29:27;;;;;;;;;;;;;;;;;;5070294;28;19943;-80
2023/03/19 16:32:16;;;;;;;;;;;;;;;;;;5048327;28;19916;-79
2023/03/19 16:35:03;;;;;;;;;;;;;;;;;;5095117;28;19922;-82
2023/03/19 16:37:51;;;;;;;;;;;;;;;;;;5080005;28;19913;-85
2023/03/19 16:40:40;;;;;;;;;;;;;;;;;;5081546;28;19924;-84
2023/03/19 16:43:27;;;;;;;;;;;;;;;;;;5065277;28;19927;-85
2023/03/19 16:46:15;;;;;;;;;;;;;;;;;;5057594;28;19935;-85
2023/03/19 16:49:01;;;;;;;;;;;;;;;;;;5080104;28;19932;-83
2023/03/19 16:51:48;;;;;;;;;;;;;;;;;;5072381;28;19920;-86
2023/03/19 16:54:35;;;;;;;;;;;;;;;;;;5066584;28;19927;-86
2023/03/19 16:57:21;;;;;;;;;;;;;;;;;;5081352;28;19926;-85
2023/03/19 17:00:11;;;;;;;;;;;;;;;;;;5076610;28;19921;-87
2023/03/19 17:02:57;;;;;;;;;;;;;;;;;;5062095;28;19920;-87
2023/03/19 17:05:44;;;;;;;;;;;;;;;;;;5087422;28;19920;-85
2023/03/19 17:08:30;;;;;;;;;;;;;;;;;;5066508;28;19928;-86
2023/03/19 17:11:17;;;;;;;;;;;;;;;;;;5087160;28;19927;-88
2023/03/19 17:14:05;;;;;;;;;;;;;;;;;;5083594;28;19923;-83
2023/03/19 17:16:53;;;;;;;;;;;;;;;;;;5077053;28;19927;-84
2023/03/19 17:19:39;;;;;;;;;;;;;;;;;;5068305;28;20013;-84
2023/03/19 17:22:26;;;;;;;;;;;;;;;;;;5076869;28;19923;-84
2023/03/19 17:25:13;;;;;;;;;;;;;;;;;;5080782;28;19916;-85
2023/03/19 17:27:59;;;;;;;;;;;;;;;;;;5084784;28;19916;-85
2023/03/19 17:30:46;;;;;;;;;;;;;;;;;;5066906;28;20253;-84
2023/03/19 17:33:32;;;;;;;;;;;;;;;;;;5081984;28;20567;-85
2023/03/19 17:36:19;;;;;;;;;;;;;;;;;;5077395;28;20338;-85
2023/03/19 17:39:06;;;;;;;;;;;;;;;;;;5078096;28;19912;-84
2023/03/19 17:41:52;;;;;;;;;;;;;;;;;;5082198;28;20362;-84
2023/03/19 17:44:39;;;;;;;;;;;;;;;;;;5067965;28;20394;-84
2023/03/19 17:47:25;;;;;;;;;;;;;;;;;;5068635;28;19931;-86
2023/03/19 17:50:12;;;;;;;;;;;;;;;;;;5066759;28;19928;-87
2023/03/19 17:52:58;;;;;;;;;;;;;;;;;;5077645;28;20378;-87
2023/03/19 17:55:45;;;;;;;;;;;;;;;;;;5065783;28;19917;-85
2023/03/19 17:58:32;;;;;;;;;;;;;;;;;;5083093;28;19927;-88
2023/03/19 18:01:19;;;;;;;;;;;;;;;;;;5065148;28;19920;-90
2023/03/19 18:04:05;;;;;;;;;;;;;;;;;;5073973;28;19927;-86
2023/03/19 18:06:55;;;;;;;;;;;;;;;;;;5090621;28;19916;-92
2023/03/19 18:09:47;;;;;;;;;;;;;;;;;;5074125;28;19916;-89
2023/03/19 18:12:50;;;;;;;;;;;;;;;;;;5073456;28;19920;-89
2023/03/19 18:15:39;;;;;;;;;;;;;;;;;;5103772;28;19916;-92
2023/03/19 18:18:26;;;;;;;;;;;;;;;;;;5060134;28;19917;-89
2023/03/19 18:23:51;;;;;;;;;;;;;;;;;;5654030;22;19929;-89
2023/03/19 18:26:38;;;;;;;;;;;;;;;;;;5012262;28;19968;-89
2023/03/19 18:29:24;;;;;;;;;;;;;;;;;;5028695;28;19932;-86
2023/03/19 18:32:13;;;;;;;;;;;;;;;;;;5010454;28;19929;-88
2023/03/19 18:35:02;;;;;;;;;;;;;;;;;;5006325;28;19917;-88
2023/03/19 18:37:49;;;;;;;;;;;;;;;;;;5008924;28;19918;-88
2023/03/19 18:40:35;;;;;;;;;;;;;;;;;;5014453;28;19923;-87
2023/03/19 18:43:22;;;;;;;;;;;;;;;;;;5015669;28;19928;-86
2023/03/19 18:46:09;;;;;;;;;;;;;;;;;;5028193;28;19937;-90
2023/03/19 18:48:55;;;;;;;;;;;;;;;;;;5045893;28;19911;-90
2023/03/19 18:51:42;;;;;;;;;;;;;;;;;;5035851;28;19973;-91
2023/03/19 18:54:32;;;;;;;;;;;;;;;;;;5002337;28;19922;-90
2023/03/19 18:57:19;;;;;;;;;;;;;;;;;;5025261;28;19928;-83
2023/03/19 19:00:06;;;;;;;;;;;;;;;;;;5017747;28;19943;-84
2023/03/19 19:02:52;;;;;;;;;;;;;;;;;;5027921;28;19921;-84